sensor_id;sensor_type;location;lat;lon;timestamp;temperature;humidity
42095;DHT22;27753;55.724;37.612;2022-12-16T00:01:09;-2.90;99.90
42095;DHT22;27753;55.724;37.612;2022-12-16T00:03:36;-2.90;99.90
42095;DHT22;27753;55.724;37.612;2022-12-16T00:06:02;-2.80;99.90
42095;DHT22;27753;55.724;37.612;2022-12-16T00:08:31;-2.80;99.90
42095;DHT22;27753;55.724;37.612;2022-12-16T00:10:59;-2.70;99.90
42095;DHT22;27753;55.724;37.612;2022-12-16T00:13:25;-2.60;99.90
42095;DHT22;27753;55.724;37.612;2022-12-16T00:15:50;-2.60;99.90
42095;DHT22;27753;55.724;37.612;2022-12-16T00:18:16;-2.60;99.90
42095;DHT22;27753;55.724;37.612;2022-12-16T00:20:45;-2.60;99.90
42095;DHT22;27753;55.724;37.612;2022-12-16T00:23:12;-2.50;99.90
42095;DHT22;27753;55.724;37.612;2022-12-16T00:25:40;-2.50;99.90
42095;DHT22;27753;55.724;37.612;2022-12-16T00:28:06;-2.40;99.90
42095;DHT22;27753;55.724;37.612;2022-12-16T00:30:32;-2.40;99.90
42095;DHT22;27753;55.724;37.612;2022-12-16T00:32:58;-2.40;99.90
42095;DHT22;27753;55.724;37.612;2022-12-16T00:35:24;-2.40;99.90
42095;DHT22;27753;55.724;37.612;2022-12-16T00:37:50;-2.40;99.90
42095;DHT22;27753;55.724;37.612;2022-12-16T00:40:16;-2.40;99.90
42095;DHT22;27753;55.724;37.612;2022-12-16T00:42:41;-2.40;99.90
42095;DHT22;27753;55.724;37.612;2022-12-16T00:45:07;-2.40;99.90
42095;DHT22;27753;55.724;37.612;2022-12-16T00:47:33;-2.30;99.90
42095;DHT22;27753;55.724;37.612;2022-12-16T00:49:59;-2.30;99.90
42095;DHT22;27753;55.724;37.612;2022-12-16T00:52:25;-2.30;99.90
42095;DHT22;27753;55.724;37.612;2022-12-16T00:54:51;-2.30;99.90
42095;DHT22;27753;55.724;37.612;2022-12-16T00:57:17;-2.30;99.90
42095;DHT22;27753;55.724;37.612;2022-12-16T00:59:43;-2.30;99.90
42095;DHT22;27753;55.724;37.612;2022-12-16T01:02:08;-2.30;99.90
42095;DHT22;27753;55.724;37.612;2022-12-16T01:04:35;-2.30;99.90
42095;DHT22;27753;55.724;37.612;2022-12-16T01:07:01;-2.20;99.90
42095;DHT22;27753;55.724;37.612;2022-12-16T01:09:27;-2.20;99.90
42095;DHT22;27753;55.724;37.612;2022-12-16T01:11:53;-2.20;99.90
42095;DHT22;27753;55.724;37.612;2022-12-16T01:14:19;-2.20;99.90
42095;DHT22;27753;55.724;37.612;2022-12-16T01:16:45;-2.20;99.90
42095;DHT22;27753;55.724;37.612;2022-12-16T01:19:11;-2.20;99.90
42095;DHT22;27753;55.724;37.612;2022-12-16T01:21:37;-2.10;99.90
42095;DHT22;27753;55.724;37.612;2022-12-16T01:24:03;-2.10;99.90
42095;DHT22;27753;55.724;37.612;2022-12-16T01:26:29;-2.10;99.90
42095;DHT22;27753;55.724;37.612;2022-12-16T01:28:56;-2.10;99.90
42095;DHT22;27753;55.724;37.612;2022-12-16T01:31:23;-2.10;99.90
42095;DHT22;27753;55.724;37.612;2022-12-16T01:33:49;-2.10;99.90
42095;DHT22;27753;55.724;37.612;2022-12-16T01:36:16;-2.10;99.90
42095;DHT22;27753;55.724;37.612;2022-12-16T01:38:43;-2.10;99.90
42095;DHT22;27753;55.724;37.612;2022-12-16T01:41:10;-2.00;99.90
42095;DHT22;27753;55.724;37.612;2022-12-16T01:43:38;-2.00;99.90
42095;DHT22;27753;55.724;37.612;2022-12-16T01:46:08;-2.00;99.90
42095;DHT22;27753;55.724;37.612;2022-12-16T01:48:47;-2.00;99.90
42095;DHT22;27753;55.724;37.612;2022-12-16T01:51:21;-1.90;99.90
42095;DHT22;27753;55.724;37.612;2022-12-16T01:53:49;-2.00;99.90
42095;DHT22;27753;55.724;37.612;2022-12-16T01:56:19;-1.90;99.90
42095;DHT22;27753;55.724;37.612;2022-12-16T01:58:46;-1.90;99.90
42095;DHT22;27753;55.724;37.612;2022-12-16T02:01:14;-1.80;99.90
42095;DHT22;27753;55.724;37.612;2022-12-16T02:03:41;-1.80;99.90
42095;DHT22;27753;55.724;37.612;2022-12-16T02:06:07;-1.80;99.90
42095;DHT22;27753;55.724;37.612;2022-12-16T02:08:33;-1.80;99.90
42095;DHT22;27753;55.724;37.612;2022-12-16T02:22:28;-1.60;99.90
42095;DHT22;27753;55.724;37.612;2022-12-16T02:27:59;-1.60;99.90
42095;DHT22;27753;55.724;37.612;2022-12-16T02:30:46;-1.50;99.90
42095;DHT22;27753;55.724;37.612;2022-12-16T02:36:11;-1.50;99.90
42095;DHT22;27753;55.724;37.612;2022-12-16T02:44:02;-1.40;99.90
42095;DHT22;27753;55.724;37.612;2022-12-16T02:46:31;-1.40;99.90
42095;DHT22;27753;55.724;37.612;2022-12-16T02:51:37;-1.30;99.90
42095;DHT22;27753;55.724;37.612;2022-12-16T02:54:04;-1.30;99.90
42095;DHT22;27753;55.724;37.612;2022-12-16T03:00:10;-1.20;99.90
42095;DHT22;27753;55.724;37.612;2022-12-16T03:03:39;-1.20;99.90
42095;DHT22;27753;55.724;37.612;2022-12-16T03:05:46;-1.10;99.90
42095;DHT22;27753;55.724;37.612;2022-12-16T03:08:28;-1.10;99.90
42095;DHT22;27753;55.724;37.612;2022-12-16T03:10:59;-1.10;99.90
42095;DHT22;27753;55.724;37.612;2022-12-16T03:13:29;-1.10;99.90
42095;DHT22;27753;55.724;37.612;2022-12-16T03:15:57;-1.20;99.90
42095;DHT22;27753;55.724;37.612;2022-12-16T03:18:25;-1.10;99.90
42095;DHT22;27753;55.724;37.612;2022-12-16T03:20:58;-1.10;99.90
42095;DHT22;27753;55.724;37.612;2022-12-16T03:23:30;-1.10;99.90
42095;DHT22;27753;55.724;37.612;2022-12-16T03:26:05;-1.10;99.90
42095;DHT22;27753;55.724;37.612;2022-12-16T03:28:39;-1.00;99.90
42095;DHT22;27753;55.724;37.612;2022-12-16T03:34:11;-1.00;99.90
42095;DHT22;27753;55.724;37.612;2022-12-16T03:36:44;-1.00;99.90
42095;DHT22;27753;55.724;37.612;2022-12-16T03:39:14;-1.00;99.90
42095;DHT22;27753;55.724;37.612;2022-12-16T03:41:42;-0.90;99.90
42095;DHT22;27753;55.724;37.612;2022-12-16T03:44:09;-0.90;99.90
42095;DHT22;27753;55.724;37.612;2022-12-16T03:46:35;-1.00;99.90
42095;DHT22;27753;55.724;37.612;2022-12-16T03:49:01;-1.00;99.90
42095;DHT22;27753;55.724;37.612;2022-12-16T03:51:27;-0.90;99.90
42095;DHT22;27753;55.724;37.612;2022-12-16T03:53:53;-0.90;99.90
42095;DHT22;27753;55.724;37.612;2022-12-16T03:56:19;-0.90;99.90
42095;DHT22;27753;55.724;37.612;2022-12-16T03:58:45;-0.90;99.90
42095;DHT22;27753;55.724;37.612;2022-12-16T04:01:12;-0.90;99.90
42095;DHT22;27753;55.724;37.612;2022-12-16T04:03:38;-0.90;99.90
42095;DHT22;27753;55.724;37.612;2022-12-16T04:06:04;-0.90;99.90
42095;DHT22;27753;55.724;37.612;2022-12-16T04:08:30;-0.90;99.90
42095;DHT22;27753;55.724;37.612;2022-12-16T04:10:56;-0.90;99.90
42095;DHT22;27753;55.724;37.612;2022-12-16T04:13:40;-0.90;99.90
42095;DHT22;27753;55.724;37.612;2022-12-16T04:16:27;-0.90;99.90
42095;DHT22;27753;55.724;37.612;2022-12-16T04:19:19;-0.80;99.90
42095;DHT22;27753;55.724;37.612;2022-12-16T04:22:06;-0.80;99.90
42095;DHT22;27753;55.724;37.612;2022-12-16T04:24:52;-0.80;99.90
42095;DHT22;27753;55.724;37.612;2022-12-16T04:27:18;-0.80;99.90
42095;DHT22;27753;55.724;37.612;2022-12-16T04:29:51;-0.80;99.90
42095;DHT22;27753;55.724;37.612;2022-12-16T04:32:36;-0.80;99.90
42095;DHT22;27753;55.724;37.612;2022-12-16T04:35:21;-0.80;99.90
42095;DHT22;27753;55.724;37.612;2022-12-16T04:38:05;-0.70;99.90
42095;DHT22;27753;55.724;37.612;2022-12-16T04:40:49;-0.70;99.90
42095;DHT22;27753;55.724;37.612;2022-12-16T04:43:33;-0.70;99.90
42095;DHT22;27753;55.724;37.612;2022-12-16T04:46:34;-0.70;99.90
42095;DHT22;27753;55.724;37.612;2022-12-16T04:49:35;-0.70;99.90
42095;DHT22;27753;55.724;37.612;2022-12-16T04:52:20;-0.70;99.90
42095;DHT22;27753;55.724;37.612;2022-12-16T04:55:05;-0.70;99.90
42095;DHT22;27753;55.724;37.612;2022-12-16T04:57:54;-0.60;99.90
42095;DHT22;27753;55.724;37.612;2022-12-16T05:00:40;-0.60;99.90
42095;DHT22;27753;55.724;37.612;2022-12-16T05:03:25;-0.60;99.90
42095;DHT22;27753;55.724;37.612;2022-12-16T05:06:10;-0.60;99.90
42095;DHT22;27753;55.724;37.612;2022-12-16T05:08:55;-0.60;99.90
42095;DHT22;27753;55.724;37.612;2022-12-16T05:11:39;-0.70;99.90
42095;DHT22;27753;55.724;37.612;2022-12-16T05:14:23;-0.70;99.90
42095;DHT22;27753;55.724;37.612;2022-12-16T05:17:07;-0.70;99.90
42095;DHT22;27753;55.724;37.612;2022-12-16T05:19:51;-0.70;99.90
42095;DHT22;27753;55.724;37.612;2022-12-16T05:22:35;-0.70;99.90
42095;DHT22;27753;55.724;37.612;2022-12-16T05:25:20;-0.70;99.90
42095;DHT22;27753;55.724;37.612;2022-12-16T05:28:16;-0.80;99.90
42095;DHT22;27753;55.724;37.612;2022-12-16T05:31:00;-0.80;99.90
42095;DHT22;27753;55.724;37.612;2022-12-16T05:33:45;-0.90;99.90
42095;DHT22;27753;55.724;37.612;2022-12-16T05:36:29;-0.90;99.90
42095;DHT22;27753;55.724;37.612;2022-12-16T05:39:16;-0.80;99.90
42095;DHT22;27753;55.724;37.612;2022-12-16T05:42:00;-0.80;99.90
42095;DHT22;27753;55.724;37.612;2022-12-16T05:44:44;-0.80;99.90
42095;DHT22;27753;55.724;37.612;2022-12-16T05:47:28;-0.80;99.90
42095;DHT22;27753;55.724;37.612;2022-12-16T05:50:12;-0.80;99.90
42095;DHT22;27753;55.724;37.612;2022-12-16T05:52:57;-0.80;99.90
42095;DHT22;27753;55.724;37.612;2022-12-16T05:55:41;-0.80;99.90
42095;DHT22;27753;55.724;37.612;2022-12-16T05:58:26;-0.90;99.90
42095;DHT22;27753;55.724;37.612;2022-12-16T06:01:11;-0.90;99.90
42095;DHT22;27753;55.724;37.612;2022-12-16T06:03:55;-0.90;99.90
42095;DHT22;27753;55.724;37.612;2022-12-16T06:06:40;-0.90;99.90
42095;DHT22;27753;55.724;37.612;2022-12-16T06:09:24;-0.90;99.90
42095;DHT22;27753;55.724;37.612;2022-12-16T06:12:09;-0.80;99.90
42095;DHT22;27753;55.724;37.612;2022-12-16T06:14:53;-0.90;99.90
42095;DHT22;27753;55.724;37.612;2022-12-16T06:17:47;-0.90;99.90
42095;DHT22;27753;55.724;37.612;2022-12-16T06:20:32;-0.90;99.90
42095;DHT22;27753;55.724;37.612;2022-12-16T06:23:16;-0.90;99.90
42095;DHT22;27753;55.724;37.612;2022-12-16T06:26:01;-0.90;99.90
42095;DHT22;27753;55.724;37.612;2022-12-16T06:28:45;-0.90;99.90
42095;DHT22;27753;55.724;37.612;2022-12-16T06:31:29;-0.90;99.90
42095;DHT22;27753;55.724;37.612;2022-12-16T06:34:13;-0.90;99.90
42095;DHT22;27753;55.724;37.612;2022-12-16T06:36:57;-0.90;99.90
42095;DHT22;27753;55.724;37.612;2022-12-16T06:39:41;-0.90;99.90
42095;DHT22;27753;55.724;37.612;2022-12-16T06:42:25;-1.00;99.90
42095;DHT22;27753;55.724;37.612;2022-12-16T06:45:11;-1.00;99.90
42095;DHT22;27753;55.724;37.612;2022-12-16T06:47:56;-1.00;99.90
42095;DHT22;27753;55.724;37.612;2022-12-16T06:50:40;-1.00;99.90
42095;DHT22;27753;55.724;37.612;2022-12-16T06:53:24;-1.10;99.90
42095;DHT22;27753;55.724;37.612;2022-12-16T06:56:08;-1.10;99.90
42095;DHT22;27753;55.724;37.612;2022-12-16T06:58:52;-1.10;99.90
42095;DHT22;27753;55.724;37.612;2022-12-16T07:01:37;-1.10;99.90
42095;DHT22;27753;55.724;37.612;2022-12-16T07:04:21;-1.10;99.90
42095;DHT22;27753;55.724;37.612;2022-12-16T07:07:05;-1.10;99.90
42095;DHT22;27753;55.724;37.612;2022-12-16T07:09:50;-1.20;99.90
42095;DHT22;27753;55.724;37.612;2022-12-16T07:12:34;-1.20;99.90
42095;DHT22;27753;55.724;37.612;2022-12-16T07:15:18;-1.20;99.90
42095;DHT22;27753;55.724;37.612;2022-12-16T07:18:05;-1.30;99.90
42095;DHT22;27753;55.724;37.612;2022-12-16T07:20:49;-1.40;99.90
42095;DHT22;27753;55.724;37.612;2022-12-16T07:23:33;-1.30;99.90
42095;DHT22;27753;55.724;37.612;2022-12-16T07:26:18;-1.40;99.90
42095;DHT22;27753;55.724;37.612;2022-12-16T07:29:02;-1.30;99.90
42095;DHT22;27753;55.724;37.612;2022-12-16T07:31:46;-1.30;99.90
42095;DHT22;27753;55.724;37.612;2022-12-16T07:34:30;-1.30;99.90
42095;DHT22;27753;55.724;37.612;2022-12-16T07:37:15;-1.30;99.90
42095;DHT22;27753;55.724;37.612;2022-12-16T07:39:59;-1.30;99.90
42095;DHT22;27753;55.724;37.612;2022-12-16T07:42:45;-1.30;99.90
42095;DHT22;27753;55.724;37.612;2022-12-16T07:45:33;-1.30;99.90
42095;DHT22;27753;55.724;37.612;2022-12-16T07:48:17;-1.30;99.90
42095;DHT22;27753;55.724;37.612;2022-12-16T07:51:01;-1.30;99.90
42095;DHT22;27753;55.724;37.612;2022-12-16T07:53:46;-1.30;99.90
42095;DHT22;27753;55.724;37.612;2022-12-16T07:56:30;-1.30;99.90
42095;DHT22;27753;55.724;37.612;2022-12-16T07:59:14;-1.30;99.90
42095;DHT22;27753;55.724;37.612;2022-12-16T08:01:58;-1.30;99.90
42095;DHT22;27753;55.724;37.612;2022-12-16T08:04:42;-1.30;99.90
42095;DHT22;27753;55.724;37.612;2022-12-16T08:07:26;-1.30;99.90
42095;DHT22;27753;55.724;37.612;2022-12-16T08:10:11;-1.40;99.90
42095;DHT22;27753;55.724;37.612;2022-12-16T08:13:00;-1.40;99.90
42095;DHT22;27753;55.724;37.612;2022-12-16T08:15:44;-1.40;99.90
42095;DHT22;27753;55.724;37.612;2022-12-16T08:18:29;-1.40;99.90
42095;DHT22;27753;55.724;37.612;2022-12-16T08:21:15;-1.40;99.90
42095;DHT22;27753;55.724;37.612;2022-12-16T08:24:02;-1.40;99.90
42095;DHT22;27753;55.724;37.612;2022-12-16T08:26:46;-1.30;99.90
42095;DHT22;27753;55.724;37.612;2022-12-16T08:29:31;-1.30;99.90
42095;DHT22;27753;55.724;37.612;2022-12-16T08:32:15;-1.30;99.90
42095;DHT22;27753;55.724;37.612;2022-12-16T08:35:01;-1.40;99.90
42095;DHT22;27753;55.724;37.612;2022-12-16T08:37:46;-1.30;99.90
42095;DHT22;27753;55.724;37.612;2022-12-16T08:40:30;-1.40;99.70
42095;DHT22;27753;55.724;37.612;2022-12-16T08:43:15;-1.40;98.90
42095;DHT22;27753;55.724;37.612;2022-12-16T08:46:06;-1.40;99.30
42095;DHT22;27753;55.724;37.612;2022-12-16T08:48:54;-1.30;99.30
42095;DHT22;27753;55.724;37.612;2022-12-16T08:51:38;-1.40;99.30
42095;DHT22;27753;55.724;37.612;2022-12-16T08:54:23;-1.30;99.80
42095;DHT22;27753;55.724;37.612;2022-12-16T08:57:07;-1.40;99.60
42095;DHT22;27753;55.724;37.612;2022-12-16T08:59:51;-1.40;99.20
42095;DHT22;27753;55.724;37.612;2022-12-16T09:02:35;-1.40;98.80
42095;DHT22;27753;55.724;37.612;2022-12-16T09:05:19;-1.40;98.80
42095;DHT22;27753;55.724;37.612;2022-12-16T09:08:04;-1.40;98.70
42095;DHT22;27753;55.724;37.612;2022-12-16T09:10:48;-1.40;99.20
42095;DHT22;27753;55.724;37.612;2022-12-16T09:13:33;-1.40;99.20
42095;DHT22;27753;55.724;37.612;2022-12-16T09:16:17;-1.40;99.20
42095;DHT22;27753;55.724;37.612;2022-12-16T09:19:02;-1.40;99.40
42095;DHT22;27753;55.724;37.612;2022-12-16T09:21:46;-1.40;99.30
42095;DHT22;27753;55.724;37.612;2022-12-16T09:24:30;-1.40;99.50
42095;DHT22;27753;55.724;37.612;2022-12-16T09:27:14;-1.40;99.60
42095;DHT22;27753;55.724;37.612;2022-12-16T09:29:58;-1.40;99.40
42095;DHT22;27753;55.724;37.612;2022-12-16T09:32:43;-1.30;99.30
42095;DHT22;27753;55.724;37.612;2022-12-16T09:35:28;-1.30;99.30
42095;DHT22;27753;55.724;37.612;2022-12-16T09:38:12;-1.30;99.00
42095;DHT22;27753;55.724;37.612;2022-12-16T09:40:59;-1.30;98.20
42095;DHT22;27753;55.724;37.612;2022-12-16T09:44:10;-1.30;98.30
42095;DHT22;27753;55.724;37.612;2022-12-16T09:47:21;-1.30;98.70
42095;DHT22;27753;55.724;37.612;2022-12-16T09:50:20;-1.30;98.80
42095;DHT22;27753;55.724;37.612;2022-12-16T09:53:20;-1.30;96.90
42095;DHT22;27753;55.724;37.612;2022-12-16T09:56:18;-1.40;97.50
42095;DHT22;27753;55.724;37.612;2022-12-16T09:59:16;-1.40;97.60
42095;DHT22;27753;55.724;37.612;2022-12-16T10:02:02;-1.40;97.70
42095;DHT22;27753;55.724;37.612;2022-12-16T10:04:50;-1.40;97.90
42095;DHT22;27753;55.724;37.612;2022-12-16T10:07:39;-1.40;97.80
42095;DHT22;27753;55.724;37.612;2022-12-16T10:10:49;-1.40;97.30
42095;DHT22;27753;55.724;37.612;2022-12-16T10:17:02;-1.40;97.20
42095;DHT22;27753;55.724;37.612;2022-12-16T10:20:23;-1.40;97.30
42095;DHT22;27753;55.724;37.612;2022-12-16T10:26:38;-1.40;97.60
42095;DHT22;27753;55.724;37.612;2022-12-16T10:29:27;-1.40;97.90
42095;DHT22;27753;55.724;37.612;2022-12-16T10:32:20;-1.40;98.00
42095;DHT22;27753;55.724;37.612;2022-12-16T10:35:28;-1.40;98.40
42095;DHT22;27753;55.724;37.612;2022-12-16T10:38:23;-1.40;99.00
42095;DHT22;27753;55.724;37.612;2022-12-16T10:41:08;-1.50;98.90
42095;DHT22;27753;55.724;37.612;2022-12-16T10:43:54;-1.50;98.60
42095;DHT22;27753;55.724;37.612;2022-12-16T10:46:40;-1.50;99.20
42095;DHT22;27753;55.724;37.612;2022-12-16T10:49:24;-1.50;99.30
42095;DHT22;27753;55.724;37.612;2022-12-16T10:52:18;-1.50;99.40
42095;DHT22;27753;55.724;37.612;2022-12-16T11:01:41;-1.40;99.10
42095;DHT22;27753;55.724;37.612;2022-12-16T11:10:41;-1.40;98.70
42095;DHT22;27753;55.724;37.612;2022-12-16T11:13:32;-1.50;98.40
42095;DHT22;27753;55.724;37.612;2022-12-16T11:16:38;-1.50;98.30
42095;DHT22;27753;55.724;37.612;2022-12-16T11:19:28;-1.40;98.70
42095;DHT22;27753;55.724;37.612;2022-12-16T11:22:24;-1.40;99.00
42095;DHT22;27753;55.724;37.612;2022-12-16T11:28:12;-1.60;99.90
42095;DHT22;27753;55.724;37.612;2022-12-16T11:31:05;-1.70;99.90
42095;DHT22;27753;55.724;37.612;2022-12-16T11:33:51;-1.70;99.90
42095;DHT22;27753;55.724;37.612;2022-12-16T11:36:38;-1.70;99.70
42095;DHT22;27753;55.724;37.612;2022-12-16T11:39:37;-1.70;99.50
42095;DHT22;27753;55.724;37.612;2022-12-16T11:42:27;-1.70;99.40
42095;DHT22;27753;55.724;37.612;2022-12-16T11:45:18;-1.80;98.90
42095;DHT22;27753;55.724;37.612;2022-12-16T11:48:17;-1.80;99.10
42095;DHT22;27753;55.724;37.612;2022-12-16T11:51:12;-1.80;99.20
42095;DHT22;27753;55.724;37.612;2022-12-16T11:54:14;-1.90;99.60
42095;DHT22;27753;55.724;37.612;2022-12-16T11:57:01;-1.90;99.20
42095;DHT22;27753;55.724;37.612;2022-12-16T11:59:56;-2.00;99.00
42095;DHT22;27753;55.724;37.612;2022-12-16T12:02:49;-2.00;99.30
42095;DHT22;27753;55.724;37.612;2022-12-16T12:05:59;-2.00;99.10
42095;DHT22;27753;55.724;37.612;2022-12-16T12:09:12;-2.00;99.10
42095;DHT22;27753;55.724;37.612;2022-12-16T12:15:36;-2.20;99.60
42095;DHT22;27753;55.724;37.612;2022-12-16T12:24:52;-2.30;99.20
42095;DHT22;27753;55.724;37.612;2022-12-16T12:28:00;-2.30;98.90
42095;DHT22;27753;55.724;37.612;2022-12-16T12:31:29;-2.30;98.20
42095;DHT22;27753;55.724;37.612;2022-12-16T12:37:27;-2.30;98.70
42095;DHT22;27753;55.724;37.612;2022-12-16T12:40:36;-2.30;98.70
42095;DHT22;27753;55.724;37.612;2022-12-16T12:49:30;-2.40;99.40
42095;DHT22;27753;55.724;37.612;2022-12-16T12:52:33;-2.50;99.50
42095;DHT22;27753;55.724;37.612;2022-12-16T12:55:31;-2.50;99.00
42095;DHT22;27753;55.724;37.612;2022-12-16T12:58:19;-2.50;98.80
42095;DHT22;27753;55.724;37.612;2022-12-16T13:01:06;-2.60;98.40
42095;DHT22;27753;55.724;37.612;2022-12-16T13:03:57;-2.70;98.00
42095;DHT22;27753;55.724;37.612;2022-12-16T13:06:43;-2.70;96.70
42095;DHT22;27753;55.724;37.612;2022-12-16T13:09:37;-2.80;96.50
42095;DHT22;27753;55.724;37.612;2022-12-16T13:15:17;-2.80;96.20
42095;DHT22;27753;55.724;37.612;2022-12-16T13:20:53;-2.80;96.30
42095;DHT22;27753;55.724;37.612;2022-12-16T13:23:40;-2.80;96.60
42095;DHT22;27753;55.724;37.612;2022-12-16T13:26:27;-2.80;96.60
42095;DHT22;27753;55.724;37.612;2022-12-16T13:29:26;-2.80;96.90
42095;DHT22;27753;55.724;37.612;2022-12-16T13:32:21;-2.80;97.30
42095;DHT22;27753;55.724;37.612;2022-12-16T13:37:54;-2.90;96.40
42095;DHT22;27753;55.724;37.612;2022-12-16T13:43:54;-3.00;96.80
42095;DHT22;27753;55.724;37.612;2022-12-16T13:46:49;-2.90;97.10
42095;DHT22;27753;55.724;37.612;2022-12-16T13:55:53;-2.90;97.20
42095;DHT22;27753;55.724;37.612;2022-12-16T13:59:07;-2.90;97.50
42095;DHT22;27753;55.724;37.612;2022-12-16T14:02:02;-2.80;97.70
42095;DHT22;27753;55.724;37.612;2022-12-16T14:04:54;-2.70;97.70
42095;DHT22;27753;55.724;37.612;2022-12-16T14:07:40;-2.70;97.80
42095;DHT22;27753;55.724;37.612;2022-12-16T14:10:29;-2.70;97.70
42095;DHT22;27753;55.724;37.612;2022-12-16T14:13:51;-2.60;97.80
42095;DHT22;27753;55.724;37.612;2022-12-16T14:16:56;-2.60;97.60
42095;DHT22;27753;55.724;37.612;2022-12-16T14:25:46;-2.50;97.50
42095;DHT22;27753;55.724;37.612;2022-12-16T14:28:32;-2.60;97.50
42095;DHT22;27753;55.724;37.612;2022-12-16T14:31:20;-2.60;97.30
42095;DHT22;27753;55.724;37.612;2022-12-16T14:34:16;-2.60;97.30
42095;DHT22;27753;55.724;37.612;2022-12-16T14:37:19;-2.60;97.00
42095;DHT22;27753;55.724;37.612;2022-12-16T14:40:17;-2.60;96.90
42095;DHT22;27753;55.724;37.612;2022-12-16T14:43:02;-2.60;96.80
42095;DHT22;27753;55.724;37.612;2022-12-16T14:45:48;-2.60;97.20
42095;DHT22;27753;55.724;37.612;2022-12-16T14:48:33;-2.60;97.30
42095;DHT22;27753;55.724;37.612;2022-12-16T14:51:31;-2.50;97.40
42095;DHT22;27753;55.724;37.612;2022-12-16T14:57:20;-2.40;97.30
42095;DHT22;27753;55.724;37.612;2022-12-16T15:03:23;-2.40;97.30
42095;DHT22;27753;55.724;37.612;2022-12-16T15:06:16;-2.40;97.30
42095;DHT22;27753;55.724;37.612;2022-12-16T15:09:04;-2.40;97.50
42095;DHT22;27753;55.724;37.612;2022-12-16T15:11:51;-2.40;97.40
42095;DHT22;27753;55.724;37.612;2022-12-16T15:14:38;-2.40;97.50
42095;DHT22;27753;55.724;37.612;2022-12-16T15:17:28;-2.40;97.60
42095;DHT22;27753;55.724;37.612;2022-12-16T15:20:26;-2.30;97.80
42095;DHT22;27753;55.724;37.612;2022-12-16T15:23:30;-2.30;97.50
42095;DHT22;27753;55.724;37.612;2022-12-16T15:26:23;-2.30;97.50
42095;DHT22;27753;55.724;37.612;2022-12-16T15:35:28;-2.30;97.90
42095;DHT22;27753;55.724;37.612;2022-12-16T15:41:29;-2.20;97.90
42095;DHT22;27753;55.724;37.612;2022-12-16T15:44:25;-2.20;98.10
42095;DHT22;27753;55.724;37.612;2022-12-16T15:50:34;-2.20;98.00
42095;DHT22;27753;55.724;37.612;2022-12-16T15:53:29;-2.10;98.30
42095;DHT22;27753;55.724;37.612;2022-12-16T15:59:26;-2.20;97.40
42095;DHT22;27753;55.724;37.612;2022-12-16T16:02:26;-2.20;97.10
42095;DHT22;27753;55.724;37.612;2022-12-16T16:05:23;-2.20;97.20
42095;DHT22;27753;55.724;37.612;2022-12-16T16:08:10;-2.20;97.40
42095;DHT22;27753;55.724;37.612;2022-12-16T16:14:34;-2.20;97.40
42095;DHT22;27753;55.724;37.612;2022-12-16T16:17:28;-2.20;97.60
42095;DHT22;27753;55.724;37.612;2022-12-16T16:20:15;-2.30;97.60
42095;DHT22;27753;55.724;37.612;2022-12-16T16:22:59;-2.30;97.80
42095;DHT22;27753;55.724;37.612;2022-12-16T16:25:45;-2.30;97.90
42095;DHT22;27753;55.724;37.612;2022-12-16T16:28:31;-2.30;98.10
42095;DHT22;27753;55.724;37.612;2022-12-16T16:31:16;-2.30;98.10
42095;DHT22;27753;55.724;37.612;2022-12-16T16:34:00;-2.30;97.70
42095;DHT22;27753;55.724;37.612;2022-12-16T16:36:49;-2.30;97.70
42095;DHT22;27753;55.724;37.612;2022-12-16T16:39:34;-2.30;97.70
42095;DHT22;27753;55.724;37.612;2022-12-16T16:42:18;-2.20;97.90
42095;DHT22;27753;55.724;37.612;2022-12-16T16:45:03;-2.20;98.00
42095;DHT22;27753;55.724;37.612;2022-12-16T16:47:50;-2.20;98.00
42095;DHT22;27753;55.724;37.612;2022-12-16T16:50:38;-2.20;98.50
42095;DHT22;27753;55.724;37.612;2022-12-16T16:53:23;-2.20;98.90
42095;DHT22;27753;55.724;37.612;2022-12-16T16:56:08;-2.20;99.10
42095;DHT22;27753;55.724;37.612;2022-12-16T16:58:53;-2.20;99.20
42095;DHT22;27753;55.724;37.612;2022-12-16T17:01:38;-2.20;99.70
42095;DHT22;27753;55.724;37.612;2022-12-16T17:04:22;-2.20;99.90
42095;DHT22;27753;55.724;37.612;2022-12-16T17:07:06;-2.30;99.90
42095;DHT22;27753;55.724;37.612;2022-12-16T17:09:52;-2.40;99.90
42095;DHT22;27753;55.724;37.612;2022-12-16T17:12:41;-2.40;99.90
42095;DHT22;27753;55.724;37.612;2022-12-16T17:15:31;-2.40;99.90
42095;DHT22;27753;55.724;37.612;2022-12-16T17:18:15;-2.40;99.90
42095;DHT22;27753;55.724;37.612;2022-12-16T17:21:00;-2.40;99.90
42095;DHT22;27753;55.724;37.612;2022-12-16T17:23:44;-2.40;99.90
42095;DHT22;27753;55.724;37.612;2022-12-16T17:26:28;-2.40;99.90
42095;DHT22;27753;55.724;37.612;2022-12-16T17:29:21;-2.40;99.90
42095;DHT22;27753;55.724;37.612;2022-12-16T17:32:06;-2.40;99.90
42095;DHT22;27753;55.724;37.612;2022-12-16T17:34:51;-2.40;99.90
42095;DHT22;27753;55.724;37.612;2022-12-16T17:37:36;-2.40;99.70
42095;DHT22;27753;55.724;37.612;2022-12-16T17:40:20;-2.40;99.40
42095;DHT22;27753;55.724;37.612;2022-12-16T17:43:04;-2.30;99.80
42095;DHT22;27753;55.724;37.612;2022-12-16T17:46:04;-2.30;99.90
42095;DHT22;27753;55.724;37.612;2022-12-16T17:48:53;-2.30;99.90
42095;DHT22;27753;55.724;37.612;2022-12-16T17:51:38;-2.30;99.90
42095;DHT22;27753;55.724;37.612;2022-12-16T17:54:22;-2.30;99.90
42095;DHT22;27753;55.724;37.612;2022-12-16T17:57:07;-2.30;99.90
42095;DHT22;27753;55.724;37.612;2022-12-16T17:59:51;-2.30;99.90
42095;DHT22;27753;55.724;37.612;2022-12-16T18:02:35;-2.30;99.90
42095;DHT22;27753;55.724;37.612;2022-12-16T18:05:19;-2.30;99.90
42095;DHT22;27753;55.724;37.612;2022-12-16T18:08:03;-2.20;99.80
42095;DHT22;27753;55.724;37.612;2022-12-16T18:10:52;-2.30;99.90
42095;DHT22;27753;55.724;37.612;2022-12-16T18:13:36;-2.30;99.90
42095;DHT22;27753;55.724;37.612;2022-12-16T18:16:22;-2.20;99.80
42095;DHT22;27753;55.724;37.612;2022-12-16T18:19:09;-2.20;99.60
42095;DHT22;27753;55.724;37.612;2022-12-16T18:21:53;-2.20;99.80
42095;DHT22;27753;55.724;37.612;2022-12-16T18:24:37;-2.20;99.90
42095;DHT22;27753;55.724;37.612;2022-12-16T18:27:22;-2.30;99.90
42095;DHT22;27753;55.724;37.612;2022-12-16T18:30:06;-2.30;99.90
42095;DHT22;27753;55.724;37.612;2022-12-16T18:32:51;-2.40;99.90
42095;DHT22;27753;55.724;37.612;2022-12-16T18:35:35;-2.50;99.90
42095;DHT22;27753;55.724;37.612;2022-12-16T18:38:19;-2.50;99.90
42095;DHT22;27753;55.724;37.612;2022-12-16T18:41:04;-2.50;99.90
42095;DHT22;27753;55.724;37.612;2022-12-16T18:43:49;-2.50;99.90
42095;DHT22;27753;55.724;37.612;2022-12-16T18:46:34;-2.50;99.90
42095;DHT22;27753;55.724;37.612;2022-12-16T18:49:26;-2.40;99.90
42095;DHT22;27753;55.724;37.612;2022-12-16T18:52:10;-2.40;99.90
42095;DHT22;27753;55.724;37.612;2022-12-16T18:54:54;-2.30;99.90
42095;DHT22;27753;55.724;37.612;2022-12-16T18:57:39;-2.30;99.90
42095;DHT22;27753;55.724;37.612;2022-12-16T19:00:27;-2.30;99.90